createdAt,value
2018-06-22T00:01:31.819Z,57.20
2018-06-22T00:04:03.893Z,55.20
2018-06-22T00:06:37.078Z,56.00
2018-06-22T00:09:11.896Z,57.20
2018-06-22T00:11:44.026Z,52.20
2018-06-22T00:14:16.707Z,57.60
2018-06-22T00:16:49.388Z,53.00
2018-06-22T00:19:22.393Z,57.40
2018-06-22T00:24:31.818Z,58.40
2018-06-22T00:27:04.779Z,61.40
2018-06-22T00:29:37.915Z,54.40
2018-06-22T00:32:10.401Z,57.00
2018-06-22T00:34:42.875Z,55.80
2018-06-22T00:37:15.083Z,56.40
2018-06-22T00:39:48.072Z,56.60
2018-06-22T00:42:20.144Z,55.80
2018-06-22T00:44:53.089Z,58.00
2018-06-22T00:47:25.529Z,56.80
2018-06-22T00:49:58.656Z,59.40
2018-06-22T00:52:31.346Z,56.20
2018-06-22T00:55:03.976Z,57.20
2018-06-22T00:57:36.627Z,58.00
2018-06-22T01:00:08.968Z,60.40
2018-06-22T01:02:41.047Z,61.80
2018-06-22T01:05:13.826Z,61.60
2018-06-22T01:07:45.930Z,63.40
2018-06-22T01:10:18.713Z,64.40
2018-06-22T01:12:51.277Z,65.00
2018-06-22T01:15:24.150Z,63.20
2018-06-22T01:17:56.507Z,63.00
2018-06-22T01:20:29.902Z,65.20
2018-06-22T01:23:01.979Z,65.20
2018-06-22T01:25:35.281Z,67.20
2018-06-22T01:28:07.720Z,67.20
2018-06-22T01:30:40.005Z,65.00
2018-06-22T01:33:12.100Z,59.40
2018-06-22T01:35:45.541Z,63.20
2018-06-22T01:38:18.685Z,66.60
2018-06-22T01:40:51.288Z,65.80
2018-06-22T01:43:23.960Z,66.20
2018-06-22T01:45:57.213Z,63.00
2018-06-22T01:48:30.000Z,69.00
2018-06-22T01:51:02.830Z,67.20
2018-06-22T01:53:35.463Z,68.80
2018-06-22T01:56:08.394Z,74.40
2018-06-22T01:58:41.848Z,73.80
2018-06-22T02:01:14.497Z,77.00
2018-06-22T02:03:47.015Z,79.40
2018-06-22T02:06:19.540Z,74.60
2018-06-22T02:08:51.741Z,77.20
2018-06-22T02:11:24.700Z,71.40
2018-06-22T02:13:56.995Z,73.80
2018-06-22T02:16:31.659Z,73.80
2018-06-22T02:19:04.613Z,73.40
2018-06-22T02:21:36.994Z,72.80
2018-06-22T02:24:09.430Z,71.80
2018-06-22T02:26:41.764Z,67.40
2018-06-22T02:29:13.936Z,67.60
2018-06-22T02:31:46.587Z,65.80
2018-06-22T02:34:19.160Z,65.00
2018-06-22T02:36:51.535Z,61.80
2018-06-22T02:39:24.156Z,65.20
2018-06-22T02:41:57.012Z,65.00
2018-06-22T02:44:29.294Z,63.00
2018-06-22T02:47:01.598Z,65.80
2018-06-22T02:49:33.501Z,61.80
2018-06-22T02:52:06.347Z,62.60
2018-06-22T02:54:39.095Z,64.40
2018-06-22T02:57:11.410Z,62.40
2018-06-22T02:59:44.601Z,62.00
2018-06-22T03:02:17.098Z,62.00
2018-06-22T03:04:49.786Z,61.40
2018-06-22T03:07:22.511Z,60.80
2018-06-22T03:09:55.048Z,57.40
2018-06-22T03:12:27.503Z,60.60
2018-06-22T03:15:00.288Z,58.80
2018-06-22T03:17:32.619Z,60.40
2018-06-22T03:20:05.000Z,57.00
2018-06-22T03:22:37.250Z,58.40
2018-06-22T03:25:09.867Z,60.40
2018-06-22T03:27:42.769Z,57.60
2018-06-22T03:30:15.284Z,57.40
2018-06-22T03:32:48.037Z,53.80
2018-06-22T03:35:20.896Z,57.40
2018-06-22T03:37:53.351Z,56.20
2018-06-22T03:40:26.306Z,56.00
2018-06-22T03:42:59.213Z,56.20
2018-06-22T03:45:31.877Z,54.40
2018-06-22T03:48:04.845Z,54.80
2018-06-22T03:50:37.141Z,58.60
2018-06-22T03:53:09.217Z,52.00
2018-06-22T03:55:42.046Z,51.40
2018-06-22T03:58:14.377Z,50.00
2018-06-22T04:00:47.009Z,55.20
2018-06-22T04:03:20.038Z,55.00
2018-06-22T04:05:53.771Z,53.00
2018-06-22T04:08:26.136Z,54.80
2018-06-22T04:10:58.944Z,58.40
2018-06-22T04:13:31.467Z,56.40
2018-06-22T04:16:03.798Z,55.40
2018-06-22T04:18:36.740Z,54.80
2018-06-22T04:21:09.708Z,54.80
2018-06-22T04:23:42.516Z,56.00
2018-06-22T04:26:15.078Z,55.40
2018-06-22T04:28:48.000Z,56.00
2018-06-22T04:31:20.357Z,56.80
2018-06-22T04:33:52.986Z,50.40
2018-06-22T04:36:25.235Z,55.60
2018-06-22T04:38:57.614Z,54.80
2018-06-22T04:41:30.623Z,58.80
2018-06-22T04:44:03.786Z,55.60
2018-06-22T04:46:36.490Z,58.80
2018-06-22T04:49:09.281Z,60.80
2018-06-22T04:51:41.605Z,49.40
2018-06-22T04:54:14.252Z,49.60
2018-06-22T04:56:47.740Z,52.80
2018-06-22T04:59:20.797Z,52.60
2018-06-22T05:01:53.951Z,49.60
2018-06-22T05:04:26.785Z,50.60
2018-06-22T05:06:59.996Z,52.20
2018-06-22T05:09:32.393Z,51.80
2018-06-22T05:12:04.443Z,51.00
2018-06-22T05:14:36.777Z,55.80
2018-06-22T05:17:09.460Z,56.00
2018-06-22T05:19:41.856Z,52.60
2018-06-22T05:22:14.847Z,55.20
2018-06-22T05:24:47.457Z,55.00
2018-06-22T05:27:19.908Z,54.00
2018-06-22T05:29:52.866Z,57.40
2018-06-22T05:32:25.915Z,57.00
2018-06-22T05:34:58.968Z,54.00
2018-06-22T05:37:31.580Z,56.60
2018-06-22T05:40:04.197Z,55.60
2018-06-22T05:42:36.468Z,56.40
2018-06-22T05:45:09.410Z,58.20
2018-06-22T05:47:41.756Z,58.00
2018-06-22T05:50:14.866Z,58.00
2018-06-22T05:52:47.665Z,56.40
2018-06-22T05:55:20.743Z,52.00
2018-06-22T05:57:52.783Z,48.20
2018-06-22T06:00:25.226Z,51.80
2018-06-22T06:02:57.629Z,55.40
2018-06-22T06:05:30.235Z,51.80
2018-06-22T06:08:02.858Z,57.20
2018-06-22T06:10:36.254Z,52.80
2018-06-22T06:13:08.772Z,56.20
2018-06-22T06:15:41.437Z,59.40
2018-06-22T06:18:13.633Z,55.20
2018-06-22T06:20:46.350Z,52.40
2018-06-22T06:23:18.772Z,55.60
2018-06-22T06:25:51.274Z,54.80
2018-06-22T06:28:23.424Z,55.00
2018-06-22T06:30:57.729Z,51.80
2018-06-22T06:33:34.722Z,53.80
2018-06-22T06:36:14.310Z,55.20
2018-06-22T06:38:47.033Z,54.20
2018-06-22T06:41:20.516Z,51.60
2018-06-22T06:43:58.623Z,57.80
2018-06-22T06:46:40.509Z,52.60
2018-06-22T06:49:19.382Z,54.60
2018-06-22T06:51:57.899Z,53.20
2018-06-22T06:54:32.564Z,59.40
2018-06-22T06:57:04.969Z,51.60
2018-06-22T06:59:37.043Z,49.40
2018-06-22T07:02:09.895Z,52.00
2018-06-22T07:04:42.455Z,50.00
2018-06-22T07:07:15.148Z,49.00
2018-06-22T07:09:47.951Z,54.00
2018-06-22T07:12:20.088Z,51.80
2018-06-22T07:14:52.326Z,48.80
2018-06-22T07:17:24.584Z,49.00
2018-06-22T07:19:57.295Z,51.80
2018-06-22T07:22:29.640Z,48.40
2018-06-22T07:25:02.340Z,49.00
2018-06-22T07:27:34.813Z,50.00
2018-06-22T07:30:07.811Z,48.20
2018-06-22T07:32:40.004Z,46.40
2018-06-22T07:35:12.740Z,47.20
2018-06-22T07:37:45.702Z,46.00
2018-06-22T07:40:18.253Z,45.20
2018-06-22T07:42:51.471Z,47.40
2018-06-22T07:45:24.291Z,49.00
2018-06-22T07:47:57.077Z,53.80
2018-06-22T07:50:32.817Z,51.00
2018-06-22T07:53:05.698Z,48.60
2018-06-22T07:55:38.007Z,50.40
2018-06-22T07:58:13.931Z,48.20
2018-06-22T08:00:46.694Z,49.00
2018-06-22T08:03:19.327Z,48.40
2018-06-22T08:05:51.758Z,47.60
2018-06-22T08:08:24.781Z,51.00
2018-06-22T08:11:01.022Z,50.80
2018-06-22T08:13:33.459Z,51.60
2018-06-22T08:16:07.597Z,52.00
2018-06-22T08:18:41.474Z,50.00
2018-06-22T08:21:14.320Z,49.80
2018-06-22T08:23:46.963Z,48.20
2018-06-22T08:26:20.689Z,47.80
2018-06-22T08:28:53.413Z,47.20
2018-06-22T08:31:26.305Z,53.00
2018-06-22T08:33:59.632Z,48.60
2018-06-22T08:36:32.715Z,47.00
2018-06-22T08:39:07.421Z,48.60
2018-06-22T08:41:40.139Z,51.60
2018-06-22T08:44:13.360Z,49.80
2018-06-22T08:46:46.083Z,45.60
2018-06-22T08:49:18.838Z,48.00
2018-06-22T08:51:51.196Z,47.20
2018-06-22T08:54:23.587Z,47.00
2018-06-22T08:56:56.232Z,47.20
2018-06-22T08:59:29.160Z,49.60
2018-06-22T09:02:02.503Z,48.40
2018-06-22T09:04:34.834Z,46.00
2018-06-22T09:07:07.355Z,48.20
2018-06-22T09:09:40.205Z,50.60
2018-06-22T09:12:12.970Z,51.20
2018-06-22T09:14:45.445Z,49.40
2018-06-22T09:17:18.388Z,51.20
2018-06-22T09:19:51.031Z,48.80
2018-06-22T09:22:23.488Z,51.40
2018-06-22T09:24:56.762Z,45.60
2018-06-22T09:27:29.423Z,48.40
2018-06-22T09:30:03.236Z,50.40
2018-06-22T09:32:36.001Z,46.80
2018-06-22T09:35:10.471Z,45.40
2018-06-22T09:37:43.122Z,43.00
2018-06-22T09:40:15.980Z,49.60
2018-06-22T09:42:49.436Z,49.20
2018-06-22T09:45:22.792Z,50.80
2018-06-22T09:47:57.586Z,45.20
2018-06-22T09:50:30.695Z,43.80
2018-06-22T09:53:03.974Z,44.00
2018-06-22T09:55:36.879Z,46.00
2018-06-22T09:58:09.127Z,44.80
2018-06-22T10:00:46.827Z,48.00
2018-06-22T10:03:19.892Z,46.80
2018-06-22T10:05:53.104Z,43.80
2018-06-22T10:08:26.487Z,42.20
2018-06-22T10:10:59.388Z,46.80
2018-06-22T10:13:32.595Z,45.40
2018-06-22T10:16:06.488Z,44.80
2018-06-22T10:18:38.588Z,46.20
2018-06-22T10:21:11.623Z,43.00
2018-06-22T10:23:44.101Z,43.40
2018-06-22T10:26:17.301Z,46.00
2018-06-22T10:28:56.081Z,44.80
2018-06-22T10:31:29.361Z,46.20
2018-06-22T10:34:02.353Z,45.60
2018-06-22T10:36:34.689Z,45.60
2018-06-22T10:39:09.810Z,47.40
2018-06-22T10:41:43.364Z,48.80
2018-06-22T10:44:16.564Z,49.60
2018-06-22T10:46:49.334Z,48.20
2018-06-22T10:49:22.142Z,46.80
2018-06-22T10:51:55.401Z,50.20
2018-06-22T10:54:28.365Z,47.60
2018-06-22T10:57:01.665Z,48.20
2018-06-22T10:59:34.797Z,48.60
2018-06-22T11:02:08.014Z,47.80
2018-06-22T11:04:40.656Z,49.40
2018-06-22T11:07:13.646Z,46.40
2018-06-22T11:09:46.069Z,43.60
2018-06-22T11:12:19.145Z,46.20
2018-06-22T11:14:51.751Z,46.00
2018-06-22T11:17:24.522Z,44.80
2018-06-22T11:19:57.006Z,45.20
2018-06-22T11:22:30.308Z,46.40
2018-06-22T11:25:03.135Z,44.00
2018-06-22T11:27:36.615Z,44.80
2018-06-22T11:30:09.304Z,46.60
2018-06-22T11:32:42.273Z,47.00
2018-06-22T11:35:14.546Z,48.60
2018-06-22T11:37:46.882Z,44.20
2018-06-22T11:40:19.237Z,42.80
2018-06-22T11:42:51.708Z,42.20
2018-06-22T11:45:24.072Z,46.00
2018-06-22T11:47:57.170Z,45.00
2018-06-22T11:50:30.047Z,44.80
2018-06-22T11:53:03.860Z,46.20
2018-06-22T11:55:37.344Z,40.80
2018-06-22T11:58:09.605Z,44.00
2018-06-22T12:00:42.894Z,44.20
2018-06-22T12:03:15.389Z,46.20
2018-06-22T12:05:47.979Z,45.20
2018-06-22T12:08:21.191Z,42.80
2018-06-22T12:10:54.199Z,42.80
2018-06-22T12:13:27.877Z,47.20
2018-06-22T12:16:01.178Z,46.60
2018-06-22T12:18:34.636Z,41.40
2018-06-22T12:21:08.143Z,45.40
2018-06-22T12:23:41.606Z,46.80
2018-06-22T12:26:15.095Z,45.00
2018-06-22T12:28:48.706Z,42.40
2018-06-22T12:31:21.530Z,44.40
2018-06-22T12:33:54.951Z,41.20
2018-06-22T12:36:28.127Z,44.80
2018-06-22T12:39:01.053Z,46.80
2018-06-22T12:41:34.082Z,44.20
2018-06-22T12:44:07.578Z,44.20
2018-06-22T12:46:40.858Z,39.60
2018-06-22T12:49:14.146Z,42.20
2018-06-22T12:51:47.057Z,43.60
2018-06-22T12:54:20.034Z,39.20
2018-06-22T12:56:52.601Z,46.00
2018-06-22T12:59:25.704Z,44.40
2018-06-22T13:01:59.117Z,45.40
2018-06-22T13:04:32.176Z,43.80
2018-06-22T13:07:05.677Z,45.00
2018-06-22T13:09:40.348Z,41.60
2018-06-22T13:12:13.079Z,43.80
2018-06-22T13:14:47.366Z,44.00
2018-06-22T13:17:20.380Z,38.40
2018-06-22T13:19:53.765Z,43.60
2018-06-22T13:22:26.554Z,41.80
2018-06-22T13:24:59.911Z,43.60
2018-06-22T13:27:33.317Z,46.40
2018-06-22T13:30:05.804Z,47.20
2018-06-22T13:32:37.730Z,42.60
2018-06-22T13:35:10.913Z,44.80
2018-06-22T13:37:43.567Z,44.20
2018-06-22T13:40:24.308Z,43.60
2018-06-22T13:42:56.510Z,46.20
2018-06-22T13:45:28.428Z,40.60
2018-06-22T13:48:01.280Z,43.80
2018-06-22T13:50:33.781Z,40.40
2018-06-22T13:53:06.339Z,45.40
2018-06-22T13:55:39.676Z,41.80
2018-06-22T13:58:12.718Z,39.00
2018-06-22T14:00:45.773Z,40.20
2018-06-22T14:03:20.580Z,43.40
2018-06-22T14:05:57.910Z,40.80
2018-06-22T14:08:30.719Z,43.20
2018-06-22T14:11:03.255Z,42.00
2018-06-22T14:13:35.936Z,44.00
2018-06-22T14:16:08.530Z,43.60
2018-06-22T14:18:40.876Z,46.00
2018-06-22T14:21:13.741Z,42.40
2018-06-22T14:23:47.906Z,43.40
2018-06-22T14:26:20.398Z,46.60
2018-06-22T14:28:53.035Z,49.00
2018-06-22T14:31:25.768Z,49.60
2018-06-22T14:33:58.115Z,47.60
2018-06-22T14:36:30.591Z,44.20
2018-06-22T14:39:03.176Z,44.80
2018-06-22T14:41:36.157Z,45.60
2018-06-22T14:44:08.784Z,48.00
2018-06-22T14:46:41.180Z,45.40
2018-06-22T14:49:14.136Z,49.20
2018-06-22T14:51:46.928Z,46.00
2018-06-22T14:54:24.244Z,48.40
2018-06-22T14:57:01.564Z,50.60
2018-06-22T14:59:38.207Z,48.80
2018-06-22T15:02:15.509Z,51.60
2018-06-22T15:04:52.595Z,49.60
2018-06-22T15:07:29.263Z,52.40
2018-06-22T15:10:02.238Z,58.40
2018-06-22T15:12:34.618Z,58.20
2018-06-22T15:15:09.282Z,56.20
2018-06-22T15:17:46.499Z,59.80
2018-06-22T15:20:19.151Z,58.00
2018-06-22T15:22:51.805Z,57.20
2018-06-22T15:25:24.865Z,52.20
2018-06-22T15:27:57.179Z,54.60
2018-06-22T15:30:30.234Z,57.60
2018-06-22T15:33:03.334Z,56.80
2018-06-22T15:35:40.838Z,54.20
2018-06-22T15:39:21.155Z,55.40
2018-06-22T15:41:58.999Z,55.80
2018-06-22T15:44:36.240Z,57.00
2018-06-22T15:47:13.347Z,55.60
2018-06-22T15:49:50.251Z,57.60
2018-06-22T15:52:27.702Z,57.20
2018-06-22T15:55:04.927Z,55.00
2018-06-22T15:57:37.997Z,57.60
2018-06-22T16:00:12.634Z,57.00
2018-06-22T16:02:49.874Z,55.80
2018-06-22T16:05:22.933Z,57.20
2018-06-22T16:07:55.813Z,58.40
2018-06-22T16:10:28.552Z,57.60
2018-06-22T16:13:01.427Z,56.00
2018-06-22T16:15:38.961Z,56.80
2018-06-22T16:18:15.957Z,59.60
2018-06-22T16:20:53.473Z,56.80
2018-06-22T16:23:30.736Z,54.20
2018-06-22T16:26:08.191Z,57.60
2018-06-22T16:28:40.370Z,55.80
2018-06-22T16:31:12.452Z,57.00
2018-06-22T16:33:55.222Z,52.40
2018-06-22T16:36:29.173Z,56.40
2018-06-22T16:39:02.480Z,56.40
2018-06-22T16:41:35.209Z,54.60
2018-06-22T16:44:08.656Z,53.00
2018-06-22T16:46:41.342Z,55.20
2018-06-22T16:49:14.164Z,55.20
2018-06-22T16:51:47.022Z,52.80
2018-06-22T16:54:19.964Z,56.00
2018-06-22T16:56:53.304Z,54.80
2018-06-22T16:59:26.183Z,55.00
2018-06-22T17:01:58.676Z,56.00
2018-06-22T17:04:32.161Z,54.00
2018-06-22T17:07:08.959Z,54.80
2018-06-22T17:09:46.049Z,55.20
2018-06-22T17:12:23.287Z,54.20
2018-06-22T17:15:00.428Z,54.00
2018-06-22T17:17:37.810Z,51.40
2018-06-22T17:20:10.372Z,51.60
2018-06-22T17:22:44.143Z,50.80
2018-06-22T17:25:16.710Z,54.40
2018-06-22T17:27:49.537Z,54.80
2018-06-22T17:30:22.298Z,54.40
2018-06-22T17:32:54.722Z,53.20
2018-06-22T17:35:27.980Z,54.00
2018-06-22T17:38:00.553Z,57.40
2018-06-22T17:40:33.694Z,55.80
2018-06-22T17:43:06.225Z,49.00
2018-06-22T17:45:39.209Z,53.40
2018-06-22T17:48:11.979Z,53.80
2018-06-22T17:50:44.483Z,52.20
2018-06-22T17:53:17.098Z,54.00
2018-06-22T17:55:49.741Z,52.00
2018-06-22T17:58:22.439Z,52.40
2018-06-22T18:00:59.724Z,55.00
2018-06-22T18:03:36.563Z,47.20
2018-06-22T18:06:13.469Z,48.60
2018-06-22T18:08:49.597Z,51.80
2018-06-22T18:11:26.766Z,52.20
2018-06-22T18:13:59.996Z,48.40
2018-06-22T18:16:33.007Z,54.40
2018-06-22T18:19:05.710Z,52.40
2018-06-22T18:21:38.449Z,48.40
2018-06-22T18:24:11.049Z,53.00
2018-06-22T18:26:44.210Z,51.40
2018-06-22T18:29:16.849Z,51.80
2018-06-22T18:31:49.513Z,48.40
2018-06-22T18:34:22.656Z,50.20
2018-06-22T18:36:55.197Z,50.20
2018-06-22T18:39:27.651Z,51.60
2018-06-22T18:42:00.690Z,50.60
2018-06-22T18:44:33.573Z,51.20
2018-06-22T18:47:06.427Z,50.80
2018-06-22T18:49:39.071Z,49.20
2018-06-22T18:52:16.894Z,53.60
2018-06-22T18:54:54.269Z,48.60
2018-06-22T18:57:31.753Z,48.60
2018-06-22T19:00:10.229Z,50.20
2018-06-22T19:02:47.656Z,49.00
2018-06-22T19:05:20.614Z,46.40
2018-06-22T19:07:53.009Z,48.20
2018-06-22T19:10:25.634Z,52.00
2018-06-22T19:12:58.969Z,47.40
2018-06-22T19:15:31.599Z,49.60
2018-06-22T19:18:04.460Z,47.20
2018-06-22T19:20:37.215Z,50.20
2018-06-22T19:23:10.037Z,45.00
2018-06-22T19:25:43.042Z,46.80
2018-06-22T19:28:15.477Z,49.00
2018-06-22T19:30:48.865Z,48.00
2018-06-22T19:33:21.805Z,50.00
2018-06-22T19:35:54.229Z,48.60
2018-06-22T19:41:17.684Z,51.00
2018-06-22T19:43:54.305Z,51.20
2018-06-22T19:46:31.708Z,48.40
2018-06-22T19:49:09.090Z,49.00
2018-06-22T19:51:46.679Z,46.20
2018-06-22T19:54:19.140Z,51.80
2018-06-22T19:56:51.275Z,42.40
2018-06-22T19:59:23.567Z,43.20
2018-06-22T20:01:56.717Z,48.00
2018-06-22T20:04:29.838Z,42.80
2018-06-22T20:07:01.979Z,45.60
2018-06-22T20:09:34.205Z,48.40
2018-06-22T20:12:06.519Z,47.80
2018-06-22T20:14:39.025Z,47.20
2018-06-22T20:17:11.501Z,48.00
2018-06-22T20:19:44.508Z,49.80
2018-06-22T20:22:16.835Z,48.00
2018-06-22T20:24:53.524Z,50.80
2018-06-22T20:27:25.575Z,45.40
2018-06-22T20:29:57.920Z,50.40
2018-06-22T20:32:30.246Z,54.20
2018-06-22T20:35:07.561Z,55.20
2018-06-22T20:37:53.883Z,55.40
2018-06-22T20:40:30.337Z,54.40
2018-06-22T20:43:07.211Z,61.00
2018-06-22T20:45:56.308Z,52.80
2018-06-22T20:48:32.929Z,55.00
2018-06-22T20:51:05.123Z,56.00
2018-06-22T20:53:36.922Z,54.40
2018-06-22T20:56:09.157Z,56.00
2018-06-22T20:58:41.414Z,54.00
2018-06-22T21:01:14.169Z,55.00
2018-06-22T21:03:46.814Z,58.00
2018-06-22T21:06:19.232Z,58.60
2018-06-22T21:08:51.483Z,56.00
2018-06-22T21:11:23.528Z,56.60
2018-06-22T21:13:56.099Z,54.60
2018-06-22T21:16:28.448Z,60.00
2018-06-22T21:19:00.771Z,58.60
2018-06-22T21:21:37.519Z,54.00
2018-06-22T21:24:09.431Z,60.40
2018-06-22T21:26:41.557Z,55.60
2018-06-22T21:29:18.068Z,56.00
2018-06-22T21:31:55.072Z,53.80
2018-06-22T21:34:34.660Z,56.40
2018-06-22T21:37:11.590Z,56.20
2018-06-22T21:39:44.078Z,55.00
2018-06-22T21:42:16.370Z,58.40
2018-06-22T21:44:48.959Z,55.20
2018-06-22T21:47:21.291Z,55.60
2018-06-22T21:49:53.407Z,56.40
2018-06-22T21:52:25.847Z,55.80
2018-06-22T21:54:58.121Z,60.80
2018-06-22T21:57:30.642Z,61.00
2018-06-22T22:00:03.167Z,61.20
2018-06-22T22:02:35.531Z,57.40
2018-06-22T22:05:07.925Z,59.00
2018-06-22T22:07:40.233Z,55.80
2018-06-22T22:10:12.465Z,59.40
2018-06-22T22:12:44.286Z,59.00
2018-06-22T22:15:16.893Z,62.00
2018-06-22T22:17:49.833Z,60.60
2018-06-22T22:20:21.712Z,60.60
2018-06-22T22:22:53.622Z,62.80
2018-06-22T22:25:26.222Z,59.80
2018-06-22T22:27:58.814Z,59.20
2018-06-22T22:30:31.404Z,64.20
2018-06-22T22:33:03.260Z,61.80
2018-06-22T22:35:35.802Z,57.40
2018-06-22T22:38:08.083Z,56.40
2018-06-22T22:40:40.421Z,56.20
2018-06-22T22:43:12.631Z,59.20
2018-06-22T22:45:45.004Z,52.20
2018-06-22T22:48:17.101Z,54.40
2018-06-22T22:50:49.922Z,56.20
2018-06-22T22:53:22.408Z,57.60
2018-06-22T22:55:54.828Z,58.60
2018-06-22T22:58:27.121Z,53.00
2018-06-22T23:00:59.408Z,55.80
2018-06-22T23:03:31.607Z,53.00
2018-06-22T23:06:05.036Z,52.20
2018-06-22T23:08:37.204Z,52.00
2018-06-22T23:11:10.070Z,50.20
2018-06-22T23:13:42.395Z,53.80
2018-06-22T23:16:15.002Z,52.00
2018-06-22T23:18:47.475Z,49.60
2018-06-22T23:21:20.037Z,48.60
2018-06-22T23:23:52.136Z,47.60
2018-06-22T23:26:24.510Z,48.20
2018-06-22T23:28:56.912Z,44.00
2018-06-22T23:31:29.828Z,46.00
2018-06-22T23:34:02.243Z,43.20
2018-06-22T23:36:34.710Z,44.00
2018-06-22T23:39:09.382Z,43.20
2018-06-22T23:41:41.698Z,37.40
2018-06-22T23:44:13.897Z,40.00
2018-06-22T23:46:46.495Z,38.20
2018-06-22T23:49:19.017Z,38.20
2018-06-22T23:51:51.489Z,37.00
2018-06-22T23:54:24.241Z,40.60
2018-06-22T23:56:56.638Z,35.00
2018-06-22T23:59:29.191Z,38.60
